createdAt,value
2019-05-20T00:01:44.984Z,18.03
2019-05-20T00:04:13.869Z,17.20
2019-05-20T00:06:43.141Z,17.10
2019-05-20T00:09:11.913Z,17.10
2019-05-20T00:11:40.728Z,16.53
2019-05-20T00:14:09.499Z,17.33
2019-05-20T00:16:38.476Z,17.63
2019-05-20T00:19:07.360Z,17.67
2019-05-20T00:21:36.204Z,17.50
2019-05-20T00:24:04.988Z,18.13
2019-05-20T00:26:34.009Z,17.20
2019-05-20T00:29:02.876Z,17.53
2019-05-20T00:31:31.775Z,16.97
2019-05-20T00:34:00.582Z,17.00
2019-05-20T00:36:29.651Z,17.00
2019-05-20T00:39:16.393Z,16.57
2019-05-20T00:41:45.277Z,16.43
2019-05-20T00:44:14.035Z,15.63
2019-05-20T00:46:42.930Z,16.87
2019-05-20T00:49:11.711Z,17.13
2019-05-20T00:51:41.352Z,16.47
2019-05-20T00:54:10.523Z,15.27
2019-05-20T00:56:39.598Z,16.97
2019-05-20T00:59:08.516Z,17.23
2019-05-20T01:01:37.368Z,15.67
2019-05-20T01:04:06.279Z,17.33
2019-05-20T01:06:35.272Z,15.87
2019-05-20T01:09:06.619Z,14.80
2019-05-20T01:11:35.440Z,15.87
2019-05-20T01:14:04.826Z,16.03
2019-05-20T01:16:33.975Z,15.40
2019-05-20T01:19:03.418Z,15.80
2019-05-20T01:21:32.231Z,16.30
2019-05-20T01:24:01.070Z,16.67
2019-05-20T01:26:29.875Z,16.03
2019-05-20T01:28:58.676Z,16.60
2019-05-20T01:31:27.469Z,16.43
2019-05-20T01:33:56.254Z,16.40
2019-05-20T01:36:25.239Z,17.10
2019-05-20T01:38:54.097Z,15.90
2019-05-20T01:41:22.923Z,16.07
2019-05-20T01:43:51.788Z,16.27
2019-05-20T01:46:20.813Z,16.00
2019-05-20T01:48:49.608Z,16.87
2019-05-20T01:51:18.410Z,16.12
2019-05-20T01:53:47.190Z,16.20
2019-05-20T01:56:16.150Z,17.17
2019-05-20T01:58:44.967Z,16.80
2019-05-20T02:01:13.833Z,16.57
2019-05-20T02:03:42.676Z,18.73
2019-05-20T02:06:11.487Z,16.80
2019-05-20T02:08:40.395Z,17.17
2019-05-20T02:11:09.197Z,17.23
2019-05-20T02:13:57.048Z,18.50
2019-05-20T02:16:26.770Z,17.63
2019-05-20T02:18:55.621Z,17.80
2019-05-20T02:21:24.432Z,18.27
2019-05-20T02:23:53.327Z,17.70
2019-05-20T02:26:22.498Z,19.03
2019-05-20T02:28:51.354Z,18.77
2019-05-20T02:31:20.216Z,19.80
2019-05-20T02:33:52.189Z,18.93
2019-05-20T02:36:19.704Z,19.83
2019-05-20T02:38:48.489Z,19.60
2019-05-20T02:41:17.347Z,18.67
2019-05-20T02:43:46.710Z,18.83
2019-05-20T02:46:15.646Z,18.60
2019-05-20T02:48:44.565Z,19.20
2019-05-20T02:51:14.067Z,18.87
2019-05-20T02:53:42.859Z,18.67
2019-05-20T02:56:11.823Z,19.77
2019-05-20T02:58:40.680Z,18.60
2019-05-20T03:01:09.488Z,18.43
2019-05-20T03:03:38.282Z,18.43
2019-05-20T03:06:07.245Z,18.83
2019-05-20T03:08:36.032Z,19.07
2019-05-20T03:11:04.905Z,19.73
2019-05-20T03:13:33.681Z,20.60
2019-05-20T03:16:02.567Z,19.53
2019-05-20T03:18:31.389Z,19.43
2019-05-20T03:21:00.239Z,18.97
2019-05-20T03:23:29.301Z,20.23
2019-05-20T03:25:58.384Z,19.60
2019-05-20T03:28:27.327Z,19.80
2019-05-20T03:30:56.125Z,19.13
2019-05-20T03:33:24.969Z,19.80
2019-05-20T03:35:53.978Z,20.40
2019-05-20T03:38:22.775Z,19.87
2019-05-20T03:40:53.107Z,19.50
2019-05-20T03:43:21.969Z,19.90
2019-05-20T03:45:50.869Z,19.13
2019-05-20T03:48:19.716Z,18.43
2019-05-20T03:50:48.527Z,19.37
2019-05-20T03:53:17.380Z,18.67
2019-05-20T03:55:46.223Z,19.20
2019-05-20T03:58:15.068Z,20.43
2019-05-20T04:00:45.691Z,20.00
2019-05-20T04:03:15.434Z,19.83
2019-05-20T04:05:44.725Z,20.00
2019-05-20T04:08:14.006Z,20.83
2019-05-20T04:10:43.112Z,19.37
2019-05-20T04:13:12.096Z,20.10
2019-05-20T04:15:41.402Z,20.00
2019-05-20T04:18:10.349Z,20.23
2019-05-20T04:20:39.166Z,19.63
2019-05-20T04:23:08.122Z,21.50
2019-05-20T04:25:37.023Z,20.53
2019-05-20T04:28:06.045Z,20.23
2019-05-20T04:30:34.908Z,20.50
2019-05-20T04:33:04.262Z,19.50
2019-05-20T04:35:33.075Z,20.17
2019-05-20T04:38:02.066Z,19.73
2019-05-20T04:40:30.872Z,19.77
2019-05-20T04:42:59.751Z,19.97
2019-05-20T04:45:28.541Z,18.87
2019-05-20T04:47:57.417Z,19.53
2019-05-20T04:50:26.202Z,19.70
2019-05-20T04:52:54.969Z,18.30
2019-05-20T04:55:23.847Z,19.40
2019-05-20T04:57:52.767Z,18.57
2019-05-20T05:00:50.762Z,17.75
2019-05-20T05:03:19.558Z,18.97
2019-05-20T05:05:49.335Z,18.57
2019-05-20T05:08:18.367Z,16.63
2019-05-20T05:10:47.350Z,17.10
2019-05-20T05:13:16.389Z,16.40
2019-05-20T05:15:45.726Z,16.00
2019-05-20T05:18:14.626Z,14.80
2019-05-20T05:20:43.568Z,13.70
2019-05-20T05:23:12.533Z,13.37
2019-05-20T05:25:41.368Z,13.73
2019-05-20T05:28:10.497Z,16.20
2019-05-20T05:30:40.355Z,15.33
2019-05-20T05:33:09.217Z,15.20
2019-05-20T05:35:52.340Z,15.37
2019-05-20T05:38:08.912Z,15.00
2019-05-20T05:40:37.717Z,15.43
2019-05-20T05:43:06.528Z,14.67
2019-05-20T05:45:36.158Z,14.13
2019-05-20T05:48:05.482Z,14.70
2019-05-20T05:50:34.312Z,13.80
2019-05-20T05:53:03.105Z,15.27
2019-05-20T05:55:32.069Z,13.90
2019-05-20T05:58:00.956Z,14.27
2019-05-20T06:00:29.853Z,13.80
2019-05-20T06:02:58.651Z,13.80
2019-05-20T06:05:31.328Z,12.33
2019-05-20T06:07:58.104Z,13.10
2019-05-20T06:10:26.928Z,12.60
2019-05-20T06:12:55.735Z,12.60
2019-05-20T06:15:24.899Z,12.53
2019-05-20T06:17:53.885Z,13.90
2019-05-20T06:20:23.749Z,11.83
2019-05-20T06:22:52.599Z,12.07
2019-05-20T06:25:21.869Z,12.73
2019-05-20T06:27:50.683Z,12.67
2019-05-20T06:30:22.733Z,13.77
2019-05-20T06:32:51.510Z,13.20
2019-05-20T06:35:20.298Z,12.70
2019-05-20T06:37:53.094Z,12.57
2019-05-20T06:40:21.927Z,13.68
2019-05-20T06:42:50.831Z,12.70
2019-05-20T06:45:19.786Z,12.37
2019-05-20T06:47:48.804Z,12.47
2019-05-20T06:50:17.754Z,11.60
2019-05-20T06:52:46.541Z,12.47
2019-05-20T06:55:15.919Z,11.97
2019-05-20T06:57:44.734Z,12.30
2019-05-20T07:00:15.659Z,11.33
2019-05-20T07:02:44.434Z,9.97
2019-05-20T07:05:13.552Z,10.93
2019-05-20T07:07:42.534Z,10.77
2019-05-20T07:10:11.587Z,11.60
2019-05-20T07:12:41.752Z,11.07
2019-05-20T07:15:11.168Z,11.07
2019-05-20T07:17:40.177Z,10.83
2019-05-20T07:20:09.311Z,10.47
2019-05-20T07:22:54.538Z,10.03
2019-05-20T07:25:09.153Z,10.35
2019-05-20T07:27:37.994Z,10.73
2019-05-20T07:30:07.315Z,10.67
2019-05-20T07:32:36.268Z,11.10
2019-05-20T07:35:07.852Z,11.40
2019-05-20T07:37:36.736Z,11.73
2019-05-20T07:40:06.212Z,10.87
2019-05-20T07:42:35.059Z,11.70
2019-05-20T07:45:04.421Z,11.13
2019-05-20T07:47:33.620Z,12.13
2019-05-20T07:50:03.067Z,11.63
2019-05-20T07:52:32.539Z,12.47
2019-05-20T07:55:02.184Z,12.83
2019-05-20T07:57:34.033Z,11.40
2019-05-20T08:00:04.426Z,13.43
2019-05-20T08:02:33.481Z,12.53
2019-05-20T08:05:04.605Z,13.20
2019-05-20T08:07:50.300Z,12.90
2019-05-20T08:10:03.721Z,13.77
2019-05-20T08:12:32.558Z,13.97
2019-05-20T08:15:01.461Z,15.23
2019-05-20T08:17:30.498Z,15.83
2019-05-20T08:19:59.337Z,14.93
2019-05-20T08:22:28.338Z,15.80
2019-05-20T08:24:57.248Z,14.87
2019-05-20T08:27:26.410Z,14.50
2019-05-20T08:29:55.199Z,13.63
2019-05-20T08:32:24.086Z,14.70
2019-05-20T08:34:52.917Z,14.13
2019-05-20T08:37:21.688Z,14.63
2019-05-20T08:39:50.539Z,14.83
2019-05-20T08:42:19.410Z,14.67
2019-05-20T08:44:48.249Z,14.20
2019-05-20T08:47:17.343Z,14.67
2019-05-20T08:49:46.473Z,14.43
2019-05-20T08:52:15.611Z,12.87
2019-05-20T08:54:44.424Z,13.83
2019-05-20T08:57:13.388Z,13.73
2019-05-20T08:59:42.195Z,15.20
2019-05-20T09:02:11.092Z,14.23
2019-05-20T09:04:39.913Z,13.63
2019-05-20T09:07:09.404Z,15.40
2019-05-20T09:09:38.266Z,14.53
2019-05-20T09:12:07.332Z,14.47
2019-05-20T09:14:36.112Z,14.30
2019-05-20T09:17:05.111Z,14.03
2019-05-20T09:19:33.847Z,14.27
2019-05-20T09:22:02.719Z,15.20
2019-05-20T09:24:31.564Z,15.37
2019-05-20T09:27:00.764Z,13.77
2019-05-20T09:29:29.556Z,14.60
2019-05-20T09:31:58.548Z,14.87
2019-05-20T09:34:27.449Z,14.30
2019-05-20T09:36:56.428Z,13.57
2019-05-20T09:39:25.331Z,12.90
2019-05-20T09:41:54.227Z,14.07
2019-05-20T09:44:23.073Z,14.87
2019-05-20T09:46:52.120Z,14.43
2019-05-20T09:49:20.958Z,14.57
2019-05-20T09:51:49.816Z,14.80
2019-05-20T09:54:18.667Z,13.70
2019-05-20T09:56:47.555Z,13.20
2019-05-20T09:59:16.565Z,13.47
2019-05-20T10:01:45.550Z,13.37
2019-05-20T10:04:15.927Z,14.13
2019-05-20T10:06:45.316Z,13.73
2019-05-20T10:09:14.128Z,13.37
2019-05-20T10:11:43.501Z,14.13
2019-05-20T10:14:12.474Z,13.40
2019-05-20T10:16:41.672Z,14.33
2019-05-20T10:19:10.583Z,14.37
2019-05-20T10:21:39.392Z,13.30
2019-05-20T10:24:08.186Z,14.97
2019-05-20T10:26:39.767Z,14.23
2019-05-20T10:29:08.796Z,14.70
2019-05-20T10:31:39.092Z,13.70
2019-05-20T10:34:07.963Z,13.63
2019-05-20T10:36:37.048Z,14.07
2019-05-20T10:39:08.858Z,14.47
2019-05-20T10:41:38.048Z,14.63
2019-05-20T10:44:07.252Z,14.40
2019-05-20T10:46:36.954Z,15.97
2019-05-20T10:49:05.732Z,15.23
2019-05-20T10:51:34.617Z,15.27
2019-05-20T10:54:03.415Z,15.60
2019-05-20T10:56:32.411Z,16.00
2019-05-20T10:59:01.214Z,16.17
2019-05-20T11:01:29.965Z,16.53
2019-05-20T11:03:58.871Z,15.53
2019-05-20T11:06:27.743Z,16.13
2019-05-20T11:08:56.557Z,16.40
2019-05-20T11:11:28.864Z,15.80
2019-05-20T11:13:58.209Z,16.03
2019-05-20T11:16:27.463Z,15.47
2019-05-20T11:18:56.706Z,15.50
2019-05-20T11:21:25.563Z,15.83
2019-05-20T11:23:54.383Z,15.17
2019-05-20T11:26:26.062Z,15.77
2019-05-20T11:28:54.850Z,17.40
2019-05-20T11:31:24.123Z,17.13
2019-05-20T11:33:52.925Z,17.07
2019-05-20T11:36:21.843Z,17.73
2019-05-20T11:38:50.692Z,17.10
2019-05-20T11:41:19.562Z,17.17
2019-05-20T11:43:48.362Z,17.53
2019-05-20T11:46:19.152Z,16.83
2019-05-20T11:48:48.854Z,17.47
2019-05-20T11:51:18.020Z,18.47
2019-05-20T11:53:46.908Z,17.93
2019-05-20T11:56:15.789Z,17.47
2019-05-20T11:58:44.583Z,16.97
2019-05-20T12:01:13.365Z,14.80
2019-05-20T12:03:42.277Z,16.13
2019-05-20T12:06:11.152Z,15.07
2019-05-20T12:08:40.235Z,14.87
2019-05-20T12:11:10.424Z,14.27
2019-05-20T12:13:40.706Z,14.20
2019-05-20T12:16:10.003Z,15.07
2019-05-20T12:18:39.057Z,15.33
2019-05-20T12:21:07.831Z,14.80
2019-05-20T12:23:36.641Z,13.83
2019-05-20T12:26:05.436Z,15.55
2019-05-20T12:28:34.276Z,15.60
2019-05-20T12:31:03.312Z,15.60
2019-05-20T12:33:32.093Z,13.83
2019-05-20T12:36:01.076Z,14.80
2019-05-20T12:38:29.885Z,13.97
2019-05-20T12:40:58.695Z,14.27
2019-05-20T12:43:27.485Z,13.30
2019-05-20T12:45:56.732Z,13.40
2019-05-20T12:48:25.701Z,14.17
2019-05-20T12:50:54.513Z,13.67
2019-05-20T12:53:23.286Z,13.27
2019-05-20T12:55:52.048Z,13.53
2019-05-20T12:58:20.835Z,13.10
2019-05-20T13:00:49.624Z,14.43
2019-05-20T13:03:18.680Z,13.90
2019-05-20T13:05:47.873Z,15.43
2019-05-20T13:08:17.515Z,14.80
2019-05-20T13:10:49.591Z,15.23
2019-05-20T13:13:18.396Z,15.63
2019-05-20T13:15:47.219Z,16.53
2019-05-20T13:18:16.024Z,15.50
2019-05-20T13:20:44.859Z,16.40
2019-05-20T13:23:20.175Z,15.20
2019-05-20T13:25:49.207Z,15.53
2019-05-20T13:28:19.016Z,16.17
2019-05-20T13:30:52.025Z,16.40
2019-05-20T13:33:24.023Z,15.40
2019-05-20T13:35:56.504Z,14.37
2019-05-20T13:38:25.421Z,13.90
2019-05-20T13:40:54.285Z,14.50
2019-05-20T13:43:23.156Z,14.23
2019-05-20T13:45:52.130Z,13.73
2019-05-20T13:48:20.968Z,15.23
2019-05-20T13:50:49.791Z,14.80
2019-05-20T13:53:18.704Z,15.40
2019-05-20T13:55:47.570Z,15.83
2019-05-20T13:58:16.869Z,15.30
2019-05-20T14:00:46.223Z,15.27
2019-05-20T14:03:15.415Z,15.37
2019-05-20T14:05:46.334Z,17.10
2019-05-20T14:08:15.263Z,15.33
2019-05-20T14:10:44.320Z,15.70
2019-05-20T14:13:13.127Z,16.17
2019-05-20T14:15:42.239Z,16.13
2019-05-20T14:18:11.171Z,16.33
2019-05-20T14:20:41.532Z,17.30
2019-05-20T14:23:10.387Z,16.23
2019-05-20T14:25:39.179Z,16.27
2019-05-20T14:28:08.232Z,17.00
2019-05-20T14:30:37.083Z,16.70
2019-05-20T14:33:05.974Z,16.93
2019-05-20T14:35:34.741Z,17.23
2019-05-20T14:38:03.730Z,17.53
2019-05-20T14:40:32.577Z,16.82
2019-05-20T14:43:01.514Z,16.33
2019-05-20T14:45:30.313Z,15.93
2019-05-20T14:47:59.299Z,16.30
2019-05-20T14:50:28.171Z,15.35
2019-05-20T14:52:57.080Z,16.53
2019-05-20T14:55:25.989Z,16.00
2019-05-20T14:57:55.054Z,16.90
2019-05-20T15:00:25.038Z,16.13
2019-05-20T15:02:54.766Z,14.90
2019-05-20T15:05:26.573Z,14.93
2019-05-20T15:07:55.518Z,14.43
2019-05-20T15:10:27.763Z,14.77
2019-05-20T15:12:56.535Z,14.50
2019-05-20T15:15:25.401Z,14.27
2019-05-20T15:17:55.841Z,14.53
2019-05-20T15:20:26.518Z,13.27
2019-05-20T15:23:17.740Z,13.83
2019-05-20T15:25:46.638Z,14.57
2019-05-20T15:28:15.563Z,14.77
2019-05-20T15:30:44.433Z,15.17
2019-05-20T15:33:13.282Z,16.17
2019-05-20T15:35:42.731Z,15.40
2019-05-20T15:38:12.101Z,17.70
2019-05-20T15:40:40.913Z,17.77
2019-05-20T15:43:09.753Z,16.97
2019-05-20T15:45:38.613Z,16.93
2019-05-20T15:48:07.482Z,16.97
2019-05-20T15:50:36.406Z,17.47
2019-05-20T15:53:10.758Z,16.87
2019-05-20T15:55:35.825Z,17.87
2019-05-20T15:58:05.461Z,18.07
2019-05-20T16:00:34.250Z,17.33
2019-05-20T16:03:03.033Z,19.87
2019-05-20T16:05:31.890Z,17.97
2019-05-20T16:08:00.861Z,20.20
2019-05-20T16:10:29.685Z,20.07
2019-05-20T16:12:58.759Z,20.43
2019-05-20T16:15:27.542Z,20.02
2019-05-20T16:17:56.430Z,19.70
2019-05-20T16:20:26.836Z,19.77
2019-05-20T16:22:55.634Z,17.87
2019-05-20T16:25:25.989Z,18.03
2019-05-20T16:27:55.083Z,17.47
2019-05-20T16:30:24.243Z,16.87
2019-05-20T16:32:53.115Z,17.40
2019-05-20T16:35:22.469Z,16.60
2019-05-20T16:37:53.103Z,16.47
2019-05-20T16:40:22.241Z,17.03
2019-05-20T16:42:56.347Z,17.00
2019-05-20T16:45:25.225Z,16.83
2019-05-20T16:47:54.228Z,18.00
2019-05-20T16:50:23.123Z,17.20
2019-05-20T16:52:52.720Z,17.47
2019-05-20T16:55:21.706Z,18.20
2019-05-20T16:57:50.628Z,17.40
2019-05-20T17:00:30.995Z,17.57
2019-05-20T17:02:50.546Z,17.63
2019-05-20T17:05:19.498Z,17.27
2019-05-20T17:07:52.263Z,18.43
2019-05-20T17:10:21.123Z,18.17
2019-05-20T17:12:49.901Z,19.53
2019-05-20T17:15:18.813Z,17.70
2019-05-20T17:17:48.493Z,17.20
2019-05-20T17:20:17.722Z,16.50
2019-05-20T17:22:46.597Z,17.60
2019-05-20T17:25:17.782Z,15.93
2019-05-20T17:27:47.520Z,15.03
2019-05-20T17:30:16.735Z,15.17
2019-05-20T17:32:45.613Z,14.93
2019-05-20T17:35:14.729Z,16.30
2019-05-20T17:37:43.704Z,14.40
2019-05-20T17:40:13.412Z,15.53
2019-05-20T17:42:42.420Z,13.97
2019-05-20T17:45:12.243Z,13.80
2019-05-20T17:47:41.284Z,14.17
2019-05-20T17:50:10.917Z,13.13
2019-05-20T17:52:39.717Z,12.67
2019-05-20T17:55:08.917Z,13.07
2019-05-20T17:57:37.904Z,12.90
2019-05-20T18:00:11.354Z,12.13
2019-05-20T18:02:40.332Z,12.27
2019-05-20T18:05:10.308Z,12.82
2019-05-20T18:07:39.740Z,11.97
2019-05-20T18:10:09.856Z,12.47
2019-05-20T18:12:39.968Z,11.27
2019-05-20T18:15:10.176Z,11.87
2019-05-20T18:17:39.266Z,11.87
2019-05-20T18:20:08.249Z,11.67
2019-05-20T18:22:37.112Z,11.87
2019-05-20T18:25:05.955Z,12.97
2019-05-20T18:27:34.997Z,11.70
2019-05-20T18:30:08.095Z,12.10
2019-05-20T18:32:38.655Z,10.83
2019-05-20T18:35:08.841Z,11.23
2019-05-20T18:37:37.924Z,12.50
2019-05-20T18:40:14.391Z,12.40
2019-05-20T18:42:40.270Z,12.53
2019-05-20T18:45:10.487Z,13.97
2019-05-20T18:47:39.390Z,12.67
2019-05-20T18:50:08.794Z,12.13
2019-05-20T18:52:37.585Z,10.67
2019-05-20T18:55:06.550Z,11.60
2019-05-20T18:57:35.471Z,10.90
2019-05-20T19:00:05.776Z,10.90
2019-05-20T19:02:35.034Z,11.17
2019-05-20T19:05:04.409Z,11.13
2019-05-20T19:07:35.492Z,10.70
2019-05-20T19:10:06.418Z,10.60
2019-05-20T19:12:35.511Z,10.33
2019-05-20T19:15:04.950Z,10.10
2019-05-20T19:17:34.410Z,10.40
2019-05-20T19:20:03.283Z,9.90
2019-05-20T19:22:33.108Z,10.17
2019-05-20T19:25:04.654Z,10.33
2019-05-20T19:27:36.468Z,10.63
2019-05-20T19:30:10.746Z,10.53
2019-05-20T19:32:39.612Z,10.33
2019-05-20T19:35:12.956Z,11.83
2019-05-20T19:37:41.770Z,11.83
2019-05-20T19:40:10.782Z,11.77
2019-05-20T19:42:39.711Z,12.03
2019-05-20T19:45:11.211Z,11.80
2019-05-20T19:47:40.867Z,12.07
2019-05-20T19:50:13.617Z,11.43
2019-05-20T19:52:42.779Z,12.00
2019-05-20T19:55:12.398Z,11.20
2019-05-20T19:57:42.221Z,12.43
2019-05-20T20:00:11.849Z,13.17
2019-05-20T20:02:40.641Z,13.80
2019-05-20T20:05:10.391Z,13.30
2019-05-20T20:07:39.272Z,13.10
2019-05-20T20:10:08.638Z,13.50
2019-05-20T20:12:37.451Z,13.57
2019-05-20T20:15:07.266Z,12.57
2019-05-20T20:17:36.334Z,12.33
2019-05-20T20:20:05.980Z,11.97
2019-05-20T20:22:37.374Z,10.97
2019-05-20T20:25:06.490Z,12.37
2019-05-20T20:27:35.316Z,17.83
2019-05-20T20:30:04.389Z,11.97
2019-05-20T20:32:37.797Z,10.57
2019-05-20T20:35:04.109Z,10.73
2019-05-20T20:37:32.918Z,10.17
2019-05-20T20:40:01.708Z,10.77
2019-05-20T20:42:30.623Z,10.57
2019-05-20T20:44:59.420Z,10.33
2019-05-20T20:47:40.902Z,9.47
2019-05-20T20:49:58.931Z,9.47
2019-05-20T20:52:32.421Z,9.13
2019-05-20T20:55:00.723Z,8.97
2019-05-20T20:57:29.783Z,8.80
2019-05-20T20:59:58.570Z,9.07
2019-05-20T21:02:27.355Z,9.27
2019-05-20T21:04:56.146Z,8.13
2019-05-20T21:07:25.107Z,8.90
2019-05-20T21:09:53.895Z,8.97
2019-05-20T21:12:25.010Z,8.40
2019-05-20T21:14:53.790Z,9.63
2019-05-20T21:17:22.769Z,9.03
2019-05-20T21:19:51.623Z,9.70
2019-05-20T21:22:20.585Z,10.37
2019-05-20T21:24:49.519Z,9.70
2019-05-20T21:27:18.476Z,9.03
2019-05-20T21:29:47.313Z,9.70
2019-05-20T21:32:16.123Z,9.90
2019-05-20T21:34:44.910Z,10.00
2019-05-20T21:37:13.838Z,9.77
2019-05-20T21:39:42.643Z,9.50
2019-05-20T21:42:11.450Z,9.83
2019-05-20T21:44:40.233Z,10.47
2019-05-20T21:47:09.195Z,10.60
2019-05-20T21:49:38.111Z,10.03
2019-05-20T21:52:07.032Z,10.20
2019-05-20T21:54:35.840Z,11.63
2019-05-20T21:57:05.104Z,10.87
2019-05-20T21:59:33.919Z,10.50
2019-05-20T22:02:02.695Z,12.07
2019-05-20T22:04:31.554Z,10.80
2019-05-20T22:07:00.631Z,10.77
2019-05-20T22:09:29.521Z,11.50
2019-05-20T22:11:58.327Z,10.77
2019-05-20T22:14:27.225Z,11.53
2019-05-20T22:16:56.096Z,10.23
2019-05-20T22:19:24.911Z,10.63
2019-05-20T22:22:02.664Z,11.53
2019-05-20T22:24:31.586Z,11.10
2019-05-20T22:27:00.409Z,10.33
2019-05-20T22:29:29.249Z,10.63
2019-05-20T22:31:58.030Z,11.07
2019-05-20T22:34:26.805Z,11.27
2019-05-20T22:36:55.801Z,14.37
2019-05-20T22:39:24.989Z,11.47
2019-05-20T22:41:53.762Z,10.07
2019-05-20T22:44:22.563Z,11.07
2019-05-20T22:46:51.378Z,11.17
2019-05-20T22:49:20.167Z,11.67
2019-05-20T22:51:48.942Z,11.60
2019-05-20T22:54:17.835Z,10.97
2019-05-20T22:56:46.706Z,11.70
2019-05-20T22:59:15.594Z,11.73
2019-05-20T23:02:00.799Z,11.63
2019-05-20T23:04:17.759Z,11.43
2019-05-20T23:06:46.943Z,11.33
2019-05-20T23:09:15.875Z,9.43
2019-05-20T23:11:44.665Z,11.13
2019-05-20T23:14:13.469Z,13.17
2019-05-20T23:16:42.420Z,10.40
2019-05-20T23:19:11.248Z,10.10
2019-05-20T23:21:40.412Z,10.37
2019-05-20T23:24:09.211Z,9.87
2019-05-20T23:26:38.121Z,9.53
2019-05-20T23:29:07.012Z,10.40
2019-05-20T23:31:35.793Z,10.23
2019-05-20T23:34:12.600Z,10.10
2019-05-20T23:36:35.312Z,10.20
2019-05-20T23:39:06.749Z,10.07
2019-05-20T23:41:35.621Z,10.43
2019-05-20T23:44:05.433Z,20.83
2019-05-20T23:46:34.322Z,14.77
2019-05-20T23:49:03.237Z,10.60
2019-05-20T23:51:32.041Z,10.73
2019-05-20T23:54:01.935Z,11.90
2019-05-20T23:56:32.884Z,12.17
2019-05-20T23:59:03.370Z,11.03
